Time;durP1;ratioP1;P1;durP2;ratioP2;P2;SDS_P1;SDS_P2;PMS_P1;PMS_P2;Temp;Humidity;BMP_temperature;BMP_pressure;BME280_temperature;BME280_humidity;BME280_pressure;Samples;Min_cycle;Max_cycle;Signal;HPM_P1;HPM_P2
2022/10/09 00:00:40;;;;;;;8.45;3.65;;;11.40;99.90;;;;;;4995919;28;20030;-85
2022/10/09 00:03:06;;;;;;;6.13;3.55;;;11.40;99.90;;;;;;4978506;28;20030;-84
2022/10/09 00:05:32;;;;;;;8.85;3.65;;;11.40;99.90;;;;;;4978775;28;20033;-82
2022/10/09 00:07:57;;;;;;;5.35;2.88;;;11.30;99.90;;;;;;4979069;28;20460;-82
2022/10/09 00:10:23;;;;;;;5.10;2.95;;;11.30;99.90;;;;;;4978555;28;20122;-82
2022/10/09 00:12:49;;;;;;;10.68;3.35;;;11.30;99.90;;;;;;4978837;28;20062;-82
2022/10/09 00:15:14;;;;;;;7.70;3.33;;;11.20;99.90;;;;;;4978558;28;20061;-81
2022/10/09 00:17:40;;;;;;;7.47;3.15;;;11.20;99.90;;;;;;4978158;28;20022;-82
2022/10/09 00:20:06;;;;;;;5.68;2.95;;;11.20;99.90;;;;;;4978830;28;20030;-81
2022/10/09 00:22:32;;;;;;;7.32;3.10;;;11.20;99.90;;;;;;4977779;28;20030;-82
2022/10/09 00:24:58;;;;;;;7.10;2.88;;;11.20;99.90;;;;;;4995821;28;20070;-81
2022/10/09 00:27:23;;;;;;;10.10;3.83;;;11.20;99.90;;;;;;4995344;28;20026;-82
2022/10/09 00:29:49;;;;;;;7.18;3.47;;;11.10;99.90;;;;;;4978499;28;20026;-81
2022/10/09 00:32:16;;;;;;;10.00;3.50;;;11.10;99.90;;;;;;4995568;28;20050;-81
2022/10/09 00:34:42;;;;;;;5.95;3.20;;;11.00;99.90;;;;;;4977697;28;20116;-81
2022/10/09 00:37:08;;;;;;;8.48;3.35;;;11.00;99.90;;;;;;4978567;28;20027;-81
2022/10/09 00:39:34;;;;;;;8.35;3.42;;;11.00;99.90;;;;;;4977812;28;20026;-81
2022/10/09 00:42:01;;;;;;;8.85;3.10;;;11.00;99.90;;;;;;4978055;28;20057;-81
2022/10/09 00:44:51;;;;;;;7.32;3.10;;;11.00;99.90;;;;;;4993728;28;20475;-83
2022/10/09 00:47:32;;;;;;;7.28;3.03;;;11.00;99.90;;;;;;4977922;28;20023;-83
2022/10/09 00:50:15;;;;;;;6.57;3.03;;;11.00;99.90;;;;;;4978482;28;20049;-82
2022/10/09 00:52:42;;;;;;;5.57;2.92;;;10.90;99.90;;;;;;4977330;28;20046;-83
2022/10/09 00:55:09;;;;;;;9.70;3.03;;;10.90;99.90;;;;;;4995437;28;20019;-82
2022/10/09 00:57:36;;;;;;;10.73;3.45;;;10.90;99.90;;;;;;4977759;28;20364;-83
2022/10/09 01:00:06;;;;;;;7.05;2.80;;;10.80;99.90;;;;;;4978164;28;20390;-82
2022/10/09 01:02:32;;;;;;;7.93;3.22;;;10.70;99.90;;;;;;4977639;28;20045;-83
2022/10/09 01:04:58;;;;;;;6.10;2.95;;;10.80;99.90;;;;;;4995462;28;20027;-83
2022/10/09 01:07:46;;;;;;;7.07;3.40;;;10.70;99.90;;;;;;4977577;28;20022;-86
2022/10/09 01:10:36;;;;;;;7.35;3.35;;;10.80;99.90;;;;;;4978261;28;20122;-82
2022/10/09 01:13:16;;;;;;;6.07;2.88;;;10.80;99.90;;;;;;4978231;28;20376;-82
2022/10/09 01:16:10;;;;;;;8.27;2.92;;;10.80;99.90;;;;;;4976598;28;20035;-81
2022/10/09 01:18:44;;;;;;;7.38;3.40;;;10.70;99.90;;;;;;4992496;28;20034;-81
2022/10/09 01:21:23;;;;;;;7.75;3.30;;;10.70;99.90;;;;;;4994823;28;20534;-81
2022/10/09 01:24:08;;;;;;;5.93;3.33;;;10.60;99.90;;;;;;4977181;28;20034;-81
2022/10/09 01:26:54;;;;;;;6.43;3.20;;;10.70;99.90;;;;;;4992941;28;20030;-82
2022/10/09 01:29:22;;;;;;;6.72;3.95;;;10.60;99.90;;;;;;4977675;28;20031;-82
2022/10/09 01:31:50;;;;;;;9.50;3.72;;;10.60;99.90;;;;;;4976741;28;20053;-82
2022/10/09 01:34:18;;;;;;;9.18;3.40;;;10.60;99.90;;;;;;4993845;28;20068;-81
2022/10/09 01:36:45;;;;;;;9.60;3.95;;;10.50;99.90;;;;;;4977470;28;20019;-81
2022/10/09 01:39:15;;;;;;;6.50;3.33;;;10.60;99.90;;;;;;4977603;28;20053;-82
2022/10/09 01:41:42;;;;;;;7.75;3.40;;;10.60;99.90;;;;;;4977284;28;20468;-81
2022/10/09 01:44:27;;;;;;;6.82;3.30;;;10.50;99.90;;;;;;4993591;28;20058;-82
2022/10/09 01:46:53;;;;;;;8.27;3.97;;;10.40;99.90;;;;;;4977362;28;20054;-82
2022/10/09 01:49:39;;;;;;;8.43;3.67;;;10.50;99.90;;;;;;4977474;28;20069;-82
2022/10/09 01:52:37;;;;;;;5.30;3.22;;;10.40;99.90;;;;;;4994189;28;20061;-82
2022/10/09 01:55:17;;;;;;;8.55;3.38;;;10.40;99.90;;;;;;4994644;28;20091;-81
2022/10/09 01:57:53;;;;;;;6.85;3.70;;;10.40;99.90;;;;;;4993168;28;20117;-84
2022/10/09 02:00:20;;;;;;;9.98;3.67;;;10.30;99.90;;;;;;4977796;28;20145;-81
2022/10/09 02:02:48;;;;;;;6.72;3.47;;;10.20;99.90;;;;;;4994258;28;20063;-81
2022/10/09 02:05:22;;;;;;;5.80;3.30;;;10.20;99.90;;;;;;4977303;28;20462;-81
2022/10/09 02:07:48;;;;;;;5.20;3.35;;;10.20;99.90;;;;;;4976661;28;20049;-81
2022/10/09 02:10:16;;;;;;;6.80;2.83;;;10.20;99.90;;;;;;4977318;28;20031;-82
2022/10/09 02:12:46;;;;;;;7.82;3.22;;;10.20;99.90;;;;;;4976229;28;20377;-82
2022/10/09 02:15:13;;;;;;;9.35;3.38;;;10.20;99.90;;;;;;4994308;28;20026;-81
2022/10/09 02:17:44;;;;;;;7.55;3.40;;;10.10;99.90;;;;;;4976694;28;20030;-82
2022/10/09 02:20:13;;;;;;;7.43;4.43;;;10.10;99.90;;;;;;4977210;28;20471;-82
2022/10/09 02:22:39;;;;;;;8.35;3.20;;;10.10;99.90;;;;;;4993602;28;20052;-82
2022/10/09 02:25:06;;;;;;;8.65;3.50;;;10.10;99.90;;;;;;4976988;28;20053;-82
2022/10/09 02:27:32;;;;;;;6.95;3.17;;;10.10;99.90;;;;;;4979345;28;20116;-82
2022/10/09 02:29:59;;;;;;;9.57;3.13;;;10.10;99.90;;;;;;4998076;28;20030;-82
2022/10/09 02:32:25;;;;;;;7.50;3.42;;;10.00;99.90;;;;;;4980487;28;20480;-82
2022/10/09 02:34:51;;;;;;;17.92;3.38;;;10.00;99.90;;;;;;4996512;28;20030;-81
2022/10/09 02:37:17;;;;;;;6.85;3.53;;;10.00;99.90;;;;;;4997944;28;20042;-80
2022/10/09 02:39:42;;;;;;;6.20;2.92;;;10.00;99.90;;;;;;4980319;28;20023;-80
2022/10/09 02:42:08;;;;;;;6.03;3.05;;;9.90;99.90;;;;;;4980561;28;20468;-80
2022/10/09 02:44:34;;;;;;;7.90;3.78;;;10.00;99.90;;;;;;4980434;28;20464;-80
2022/10/09 02:47:00;;;;;;;6.18;3.50;;;10.00;99.90;;;;;;4980726;28;20030;-85
2022/10/09 02:49:25;;;;;;;9.75;3.40;;;10.00;99.90;;;;;;4997861;28;20052;-85
2022/10/09 02:51:51;;;;;;;5.85;3.28;;;10.00;99.90;;;;;;4976796;28;20066;-85
2022/10/09 02:54:16;;;;;;;6.55;3.22;;;10.00;99.90;;;;;;4977660;28;20030;-85
2022/10/09 02:56:42;;;;;;;6.97;3.33;;;9.90;99.90;;;;;;4976869;28;20416;-85
2022/10/09 02:59:08;;;;;;;6.72;3.38;;;9.90;99.90;;;;;;4977454;28;20031;-84
2022/10/09 03:01:34;;;;;;;10.23;3.28;;;9.90;99.90;;;;;;4976316;28;20077;-85
2022/10/09 03:03:59;;;;;;;10.00;3.50;;;9.90;99.90;;;;;;4978030;28;20058;-85
2022/10/09 03:06:26;;;;;;;6.30;3.30;;;9.90;99.90;;;;;;4977696;28;20039;-85
2022/10/09 03:08:53;;;;;;;7.63;3.50;;;9.80;99.90;;;;;;4977737;28;20050;-84
2022/10/09 03:11:20;;;;;;;8.05;3.30;;;9.80;99.90;;;;;;4978157;28;20042;-83
2022/10/09 03:13:46;;;;;;;9.20;3.15;;;9.80;99.90;;;;;;4976377;28;20034;-83
2022/10/09 03:16:20;;;;;;;8.00;3.20;;;9.80;99.90;;;;;;4976967;28;20038;-84
2022/10/09 03:18:47;;;;;;;8.27;3.63;;;9.70;99.90;;;;;;4976425;28;20034;-84
2022/10/09 03:21:18;;;;;;;6.43;2.95;;;9.70;99.90;;;;;;4976828;28;20027;-84
2022/10/09 03:23:44;;;;;;;6.53;3.03;;;9.70;99.90;;;;;;4976182;28;20391;-83
2022/10/09 03:26:12;;;;;;;8.85;3.00;;;9.60;99.90;;;;;;4976525;28;20519;-84
2022/10/09 03:28:43;;;;;;;8.57;3.20;;;9.70;99.90;;;;;;4976306;28;20050;-84
2022/10/09 03:31:09;;;;;;;6.93;3.10;;;9.60;99.90;;;;;;4976780;28;20125;-83
2022/10/09 03:33:35;;;;;;;7.13;3.45;;;9.70;99.90;;;;;;4976416;28;20126;-82
2022/10/09 03:36:01;;;;;;;8.25;3.47;;;9.70;99.90;;;;;;4992862;28;20022;-82
2022/10/09 03:38:27;;;;;;;6.13;3.00;;;9.70;99.90;;;;;;4975131;28;20037;-82
2022/10/09 03:40:53;;;;;;;8.68;3.35;;;9.70;99.90;;;;;;4976519;28;20134;-80
2022/10/09 03:43:19;;;;;;;5.93;2.85;;;9.60;99.90;;;;;;4976565;28;20539;-80
2022/10/09 03:45:45;;;;;;;6.25;3.03;;;9.60;99.90;;;;;;4992043;28;20030;-79
2022/10/09 03:48:12;;;;;;;8.95;3.70;;;9.60;99.90;;;;;;4976424;28;20022;-80
2022/10/09 03:50:38;;;;;;;8.48;3.33;;;9.60;99.90;;;;;;4976004;28;20039;-81
2022/10/09 03:53:05;;;;;;;9.30;3.45;;;9.60;99.90;;;;;;4976320;28;20082;-82
2022/10/09 03:55:31;;;;;;;9.23;4.50;;;9.50;99.90;;;;;;4976258;28;20035;-82
2022/10/09 03:57:57;;;;;;;5.97;3.03;;;9.50;99.90;;;;;;4975783;28;20089;-82
2022/10/09 04:00:23;;;;;;;11.20;3.75;;;9.50;99.90;;;;;;4976108;28;20138;-81
2022/10/09 04:02:49;;;;;;;8.43;4.10;;;9.50;99.90;;;;;;4976234;28;20054;-81
2022/10/09 04:05:14;;;;;;;6.38;3.22;;;9.40;99.90;;;;;;4975875;28;20121;-81
2022/10/09 04:07:40;;;;;;;6.25;3.30;;;9.50;99.90;;;;;;4975470;28;20033;-82
2022/10/09 04:10:06;;;;;;;5.75;3.47;;;9.50;99.90;;;;;;4975861;28;20039;-81
2022/10/09 04:12:31;;;;;;;8.73;3.25;;;9.50;99.90;;;;;;4976673;28;20034;-82
2022/10/09 04:14:57;;;;;;;7.07;3.13;;;9.50;99.90;;;;;;4975031;28;20051;-82
2022/10/09 04:17:22;;;;;;;8.82;3.28;;;9.40;99.90;;;;;;4976803;28;20054;-82
2022/10/09 04:19:48;;;;;;;5.97;3.03;;;9.40;99.90;;;;;;4975587;28;20026;-82
2022/10/09 04:22:13;;;;;;;5.25;3.22;;;9.40;99.90;;;;;;4976780;28;20371;-83
2022/10/09 04:24:39;;;;;;;6.53;3.92;;;9.40;99.90;;;;;;4975591;28;20027;-83
2022/10/09 04:27:05;;;;;;;7.05;3.30;;;9.40;99.90;;;;;;4975694;28;20072;-83
2022/10/09 04:29:30;;;;;;;7.90;3.20;;;9.30;99.90;;;;;;4975668;28;20027;-83
2022/10/09 04:31:56;;;;;;;7.32;3.33;;;9.30;99.90;;;;;;4974917;28;20068;-84
2022/10/09 04:34:21;;;;;;;6.25;3.10;;;9.30;99.90;;;;;;4976486;28;20066;-83
2022/10/09 04:36:47;;;;;;;7.00;3.50;;;9.30;99.90;;;;;;4975191;28;20035;-83
2022/10/09 04:39:12;;;;;;;8.95;3.65;;;9.30;99.90;;;;;;4975362;28;20026;-83
2022/10/09 04:41:38;;;;;;;7.75;3.78;;;9.20;99.90;;;;;;4975827;28;20081;-85
2022/10/09 04:44:04;;;;;;;6.57;3.10;;;9.20;99.90;;;;;;4976451;28;20385;-86
2022/10/09 04:46:29;;;;;;;7.97;3.22;;;9.20;99.90;;;;;;4975645;28;20412;-86
2022/10/09 04:48:55;;;;;;;8.43;2.85;;;9.20;99.90;;;;;;4974576;28;20088;-85
2022/10/09 04:51:20;;;;;;;7.47;3.25;;;9.20;99.90;;;;;;4978612;28;20062;-86
2022/10/09 04:53:46;;;;;;;8.38;3.63;;;9.20;99.90;;;;;;4977640;28;20030;-84
2022/10/09 04:56:15;;;;;;;8.40;3.60;;;9.20;99.90;;;;;;4978245;28;20383;-86
2022/10/09 04:58:41;;;;;;;6.35;3.05;;;9.10;99.90;;;;;;4978209;28;20030;-86
2022/10/09 05:01:10;;;;;;;9.50;3.67;;;9.00;99.90;;;;;;4978472;28;20034;-85
2022/10/09 05:03:35;;;;;;;9.63;3.83;;;9.00;99.90;;;;;;4978215;28;20038;-86
2022/10/09 05:06:03;;;;;;;6.65;3.50;;;9.00;99.90;;;;;;4978295;28;20032;-85
2022/10/09 05:08:30;;;;;;;7.15;3.10;;;9.00;99.90;;;;;;4995444;28;20033;-85
2022/10/09 05:11:03;;;;;;;6.88;2.97;;;9.00;99.90;;;;;;4977509;28;20034;-85
2022/10/09 05:13:30;;;;;;;6.05;3.20;;;8.90;99.90;;;;;;4995497;28;20034;-85
2022/10/09 05:15:56;;;;;;;5.70;3.13;;;8.90;99.90;;;;;;4977582;28;20229;-85
2022/10/09 05:18:21;;;;;;;7.40;3.28;;;8.90;99.90;;;;;;4977977;28;20464;-84
2022/10/09 05:20:47;;;;;;;6.32;3.15;;;8.90;99.90;;;;;;4977697;28;20125;-83
2022/10/09 05:23:12;;;;;;;10.70;3.17;;;8.90;99.90;;;;;;4977749;28;20090;-82
2022/10/09 05:25:38;;;;;;;8.52;3.78;;;8.80;99.90;;;;;;4977896;28;20084;-83
2022/10/09 05:28:05;;;;;;;6.75;3.90;;;8.80;99.90;;;;;;4977922;28;20027;-85
2022/10/09 05:30:30;;;;;;;6.78;3.65;;;8.80;99.90;;;;;;4978561;28;20026;-85
2022/10/09 05:32:56;;;;;;;4.63;3.30;;;8.80;99.90;;;;;;4976703;28;20073;-85
2022/10/09 05:35:21;;;;;;;7.70;2.72;;;8.80;99.90;;;;;;4977676;28;20031;-85
2022/10/09 05:37:47;;;;;;;5.50;2.80;;;8.80;99.90;;;;;;4976920;28;20533;-81
2022/10/09 05:40:12;;;;;;;6.93;3.42;;;8.80;99.90;;;;;;4993694;28;20033;-82
2022/10/09 05:42:38;;;;;;;5.65;2.95;;;8.70;99.90;;;;;;4977428;28;20117;-84
2022/10/09 05:45:04;;;;;;;6.22;3.00;;;8.60;99.90;;;;;;4977583;28;20053;-82
2022/10/09 05:47:30;;;;;;;6.65;4.25;;;8.70;99.90;;;;;;4977589;28;20365;-82
2022/10/09 05:49:55;;;;;;;5.45;3.00;;;8.70;99.90;;;;;;4976828;28;20030;-82
2022/10/09 05:52:21;;;;;;;7.47;2.95;;;8.60;99.90;;;;;;4977152;28;20101;-83
2022/10/09 05:54:46;;;;;;;6.22;2.88;;;8.60;99.90;;;;;;4976768;28;20380;-83
2022/10/09 05:57:12;;;;;;;6.40;2.70;;;8.60;99.90;;;;;;4994360;28;20026;-81
2022/10/09 05:59:38;;;;;;;6.75;3.40;;;8.60;99.90;;;;;;4994232;28;20085;-85
2022/10/09 06:02:03;;;;;;;7.50;2.92;;;8.60;99.90;;;;;;4976292;28;20034;-82
2022/10/09 06:04:29;;;;;;;9.98;3.65;;;8.60;99.90;;;;;;4976998;28;20070;-81
2022/10/09 06:06:55;;;;;;;6.20;3.10;;;8.70;99.90;;;;;;4976246;28;20030;-82
2022/10/09 06:09:22;;;;;;;6.28;2.88;;;8.70;99.90;;;;;;4976965;28;20022;-82
2022/10/09 06:11:49;;;;;;;6.65;3.05;;;8.70;99.90;;;;;;4976402;28;20034;-82
2022/10/09 06:14:15;;;;;;;6.95;3.10;;;8.70;99.90;;;;;;4994343;28;20026;-82
2022/10/09 06:16:43;;;;;;;5.78;2.70;;;8.70;99.90;;;;;;4976617;28;20031;-84
2022/10/09 06:19:13;;;;;;;6.28;3.45;;;8.70;99.90;;;;;;4976690;28;20030;-82
2022/10/09 06:21:39;;;;;;;6.20;2.63;;;8.70;99.90;;;;;;4977108;28;20088;-83
2022/10/09 06:24:05;;;;;;;7.50;3.42;;;8.70;99.90;;;;;;4992793;28;20026;-82
2022/10/09 06:26:32;;;;;;;6.95;3.25;;;8.80;99.90;;;;;;4994279;28;20027;-82
2022/10/09 06:28:59;;;;;;;5.32;3.20;;;8.80;99.90;;;;;;4992289;28;20099;-82
2022/10/09 06:31:27;;;;;;;7.68;4.13;;;8.80;99.90;;;;;;4976806;28;20046;-81
2022/10/09 06:33:53;;;;;;;10.20;3.67;;;8.80;99.90;;;;;;4976429;28;20050;-82
2022/10/09 06:36:25;;;;;;;5.88;3.50;;;8.80;99.90;;;;;;4994232;28;20095;-82
2022/10/09 06:38:52;;;;;;;7.28;3.20;;;8.80;99.90;;;;;;4976259;28;20085;-80
2022/10/09 06:41:20;;;;;;;6.72;3.22;;;8.80;99.90;;;;;;4992670;28;20034;-80
2022/10/09 06:43:51;;;;;;;6.93;3.15;;;8.80;99.90;;;;;;4976344;28;20562;-81
2022/10/09 06:46:19;;;;;;;7.22;3.20;;;8.80;99.90;;;;;;4976475;28;20022;-80
2022/10/09 06:48:44;;;;;;;6.63;3.28;;;8.80;99.90;;;;;;4976095;28;20034;-82
2022/10/09 06:51:16;;;;;;;8.02;3.30;;;8.90;99.90;;;;;;4976663;28;20538;-80
2022/10/09 06:53:46;;;;;;;6.80;3.40;;;8.80;99.90;;;;;;4976678;28;20121;-84
2022/10/09 06:56:12;;;;;;;8.75;4.18;;;8.90;99.90;;;;;;4977010;28;20040;-80
2022/10/09 06:58:39;;;;;;;9.70;3.60;;;8.90;99.90;;;;;;4976816;28;20026;-85
2022/10/09 07:01:06;;;;;;;7.85;3.65;;;9.00;99.90;;;;;;4976456;28;20213;-85
2022/10/09 07:03:32;;;;;;;7.60;3.60;;;9.00;99.90;;;;;;4976926;28;20038;-85
2022/10/09 07:06:06;;;;;;;8.68;3.33;;;9.00;99.90;;;;;;4973685;28;20033;-84
2022/10/09 07:08:32;;;;;;;7.95;3.53;;;9.00;99.90;;;;;;4973039;28;20019;-84
2022/10/09 07:10:57;;;;;;;9.45;3.67;;;9.10;99.90;;;;;;4975603;28;20030;-84
2022/10/09 07:13:23;;;;;;;8.05;3.72;;;9.10;99.90;;;;;;4990118;28;20036;-85
2022/10/09 07:15:49;;;;;;;11.77;4.03;;;9.10;99.90;;;;;;4995560;28;20375;-83
2022/10/09 07:18:15;;;;;;;8.85;3.80;;;9.20;99.90;;;;;;4988611;28;20030;-83
2022/10/09 07:20:40;;;;;;;5.43;3.30;;;9.20;99.90;;;;;;4979756;28;20452;-83
2022/10/09 07:23:06;;;;;;;7.40;3.50;;;9.30;99.90;;;;;;4979672;28;20057;-82
2022/10/09 07:25:36;;;;;;;7.72;3.47;;;9.30;99.90;;;;;;4997287;28;20057;-83
2022/10/09 07:28:02;;;;;;;6.68;3.63;;;9.40;99.90;;;;;;4980939;28;20026;-83
2022/10/09 07:30:28;;;;;;;8.15;3.33;;;9.40;99.90;;;;;;4980976;28;20072;-81
2022/10/09 07:32:53;;;;;;;15.25;3.45;;;9.50;99.90;;;;;;4979731;28;20042;-83
2022/10/09 07:35:19;;;;;;;10.70;3.90;;;9.50;99.90;;;;;;4997517;28;20034;-83
2022/10/09 07:37:44;;;;;;;13.75;4.15;;;9.50;99.90;;;;;;4996350;28;20033;-82
2022/10/09 07:40:10;;;;;;;7.75;3.80;;;9.60;99.90;;;;;;4979905;28;20034;-84
2022/10/09 07:42:36;;;;;;;10.02;3.47;;;9.70;99.90;;;;;;4997103;28;20054;-82
2022/10/09 07:45:02;;;;;;;11.98;3.75;;;9.70;99.90;;;;;;4995709;28;20388;-82
2022/10/09 07:47:27;;;;;;;10.82;3.78;;;9.70;99.90;;;;;;4979707;28;20032;-82
2022/10/09 07:49:53;;;;;;;10.73;3.83;;;9.80;99.90;;;;;;4960860;28;20384;-83
2022/10/09 07:52:18;;;;;;;8.63;3.72;;;9.80;99.90;;;;;;4977279;28;20058;-83
2022/10/09 07:54:44;;;;;;;7.85;3.63;;;9.90;99.90;;;;;;4960148;28;20038;-82
2022/10/09 07:57:10;;;;;;;13.20;4.38;;;9.90;99.90;;;;;;4960118;28;20027;-83
2022/10/09 07:59:35;;;;;;;10.82;3.80;;;10.00;99.90;;;;;;4977502;28;20034;-83
2022/10/09 08:02:01;;;;;;;6.25;3.42;;;10.00;99.90;;;;;;4974861;28;20049;-83
2022/10/09 08:04:26;;;;;;;7.05;3.90;;;10.10;99.90;;;;;;4979957;28;20031;-85
2022/10/09 08:06:52;;;;;;;9.80;3.88;;;10.20;99.90;;;;;;4979180;28;20030;-83
2022/10/09 08:09:18;;;;;;;9.32;4.13;;;10.20;99.90;;;;;;4980046;28;20121;-85
2022/10/09 08:11:44;;;;;;;6.78;3.55;;;10.30;99.90;;;;;;4996484;28;20026;-84
2022/10/09 08:14:12;;;;;;;10.68;3.97;;;10.40;99.90;;;;;;4995803;28;20030;-84
2022/10/09 08:16:38;;;;;;;9.77;3.55;;;10.40;99.90;;;;;;4995423;28;20018;-85
2022/10/09 08:19:03;;;;;;;11.00;3.47;;;10.50;99.90;;;;;;4976666;28;20394;-84
2022/10/09 08:21:29;;;;;;;11.55;3.78;;;10.60;99.90;;;;;;4993957;28;20026;-78
2022/10/09 08:23:56;;;;;;;6.95;3.58;;;10.60;99.90;;;;;;4972131;28;20475;-79
2022/10/09 08:26:23;;;;;;;6.32;3.28;;;10.70;99.90;;;;;;4976262;28;20113;-80
2022/10/09 08:29:01;;;;;;;9.30;4.05;;;10.70;99.90;;;;;;4994874;28;20096;-80
2022/10/09 08:31:27;;;;;;;8.75;3.50;;;10.80;99.90;;;;;;4992093;28;20030;-83
2022/10/09 08:33:54;;;;;;;5.85;2.83;;;10.90;99.90;;;;;;4977555;28;20031;-82
2022/10/09 08:36:21;;;;;;;8.50;3.22;;;10.90;99.90;;;;;;4977609;28;20053;-83
2022/10/09 08:38:46;;;;;;;10.48;4.20;;;11.00;99.90;;;;;;4992676;28;20353;-81
2022/10/09 08:41:42;;;;;;;6.05;2.90;;;11.10;99.90;;;;;;4978498;28;20053;-84
2022/10/09 08:44:28;;;;;;;5.90;2.97;;;11.10;99.90;;;;;;4993916;28;20033;-81
2022/10/09 08:47:31;;;;;;;7.57;3.33;;;11.10;99.90;;;;;;4992991;28;20165;-81
2022/10/09 08:50:11;;;;;;;5.45;2.97;;;11.10;99.90;;;;;;4992827;28;20045;-81
2022/10/09 08:52:57;;;;;;;6.78;2.92;;;11.20;99.90;;;;;;4992824;28;20058;-79
2022/10/09 08:55:35;;;;;;;7.38;2.95;;;11.30;99.90;;;;;;4976584;28;20044;-81
2022/10/09 08:58:03;;;;;;;5.00;2.67;;;11.40;99.90;;;;;;4993420;28;20034;-82
2022/10/09 09:00:58;;;;;;;5.85;2.97;;;11.40;99.90;;;;;;4975844;28;20113;-79
2022/10/09 09:03:32;;;;;;;3.38;2.30;;;11.50;99.90;;;;;;4993105;28;20038;-79
2022/10/09 09:06:04;;;;;;;6.82;2.40;;;11.50;99.90;;;;;;4992414;28;20100;-85
2022/10/09 09:08:48;;;;;;;5.38;2.30;;;11.60;99.90;;;;;;4986126;28;20459;-88
2022/10/09 09:11:48;;;;;;;12.63;3.05;;;11.70;99.90;;;;;;4992384;28;20027;-81
2022/10/09 09:14:20;;;;;;;9.02;2.65;;;11.80;99.90;;;;;;4974589;28;20037;-81
2022/10/09 09:17:03;;;;;;;7.22;2.63;;;11.80;99.90;;;;;;4991878;28;20030;-81
2022/10/09 09:19:44;;;;;;;4.53;2.17;;;11.90;99.90;;;;;;4979247;28;20034;-83
2022/10/09 09:22:15;;;;;;;3.20;2.17;;;12.00;99.90;;;;;;4976458;28;20104;-81
2022/10/09 09:24:50;;;;;;;6.22;2.45;;;12.10;99.90;;;;;;4992762;28;20290;-79
2022/10/09 09:27:19;;;;;;;3.17;1.70;;;12.10;99.90;;;;;;4975524;28;20041;-79
2022/10/09 09:29:54;;;;;;;6.68;2.10;;;12.20;99.90;;;;;;4992776;28;20053;-83
2022/10/09 09:32:23;;;;;;;3.22;1.92;;;12.30;99.90;;;;;;4975234;28;20483;-85
2022/10/09 09:34:49;;;;;;;3.22;2.00;;;12.40;99.90;;;;;;4975281;28;20031;-84
2022/10/09 09:37:15;;;;;;;3.53;1.83;;;12.50;99.90;;;;;;4975129;28;20027;-83
2022/10/09 09:39:41;;;;;;;6.38;2.10;;;12.60;99.90;;;;;;4992657;28;20028;-82
2022/10/09 09:42:14;;;;;;;3.85;1.70;;;12.60;99.90;;;;;;4992797;28;20108;-83
2022/10/09 09:45:00;;;;;;;3.47;2.10;;;12.70;99.90;;;;;;4975306;28;20026;-80
2022/10/09 09:47:40;;;;;;;5.05;2.80;;;12.80;99.90;;;;;;4992973;28;20033;-79
2022/10/09 09:50:06;;;;;;;4.97;2.00;;;12.90;99.90;;;;;;4974809;28;20056;-81
2022/10/09 09:52:44;;;;;;;3.13;1.63;;;13.00;99.90;;;;;;4971805;28;20059;-83
2022/10/09 09:55:26;;;;;;;4.65;1.88;;;13.20;99.90;;;;;;4971396;28;20476;-81
2022/10/09 09:57:58;;;;;;;4.80;1.80;;;13.30;99.90;;;;;;4971834;28;20411;-81
2022/10/09 10:00:23;;;;;;;4.25;1.80;;;13.30;99.90;;;;;;4972520;28;20459;-79
2022/10/09 10:03:00;;;;;;;3.70;1.60;;;13.40;99.90;;;;;;4971345;28;20035;-82
2022/10/09 10:05:26;;;;;;;5.90;1.50;;;13.50;99.90;;;;;;4972358;28;20038;-77
2022/10/09 10:07:52;;;;;;;3.22;1.70;;;13.50;99.90;;;;;;4972795;28;20037;-84
2022/10/09 10:10:20;;;;;;;5.75;1.40;;;13.60;99.90;;;;;;4972008;28;20030;-78
2022/10/09 10:12:52;;;;;;;6.22;1.52;;;13.60;99.90;;;;;;4978617;28;20039;-83
2022/10/09 10:15:20;;;;;;;3.72;1.35;;;13.60;99.90;;;;;;4987058;28;20041;-75
2022/10/09 10:17:48;;;;;;;4.45;1.65;;;13.60;99.90;;;;;;4979092;28;20475;-75
2022/10/09 10:20:16;;;;;;;2.83;1.45;;;13.70;99.90;;;;;;4986812;28;20088;-75
2022/10/09 10:22:50;;;;;;;2.50;1.50;;;13.80;99.90;;;;;;4971205;28;20023;-75
2022/10/09 10:25:18;;;;;;;2.78;1.63;;;13.90;99.90;;;;;;4970753;28;20042;-75
2022/10/09 10:27:48;;;;;;;3.50;1.33;;;14.00;99.90;;;;;;4970700;28;20058;-76
2022/10/09 10:30:16;;;;;;;3.70;1.52;;;14.10;99.90;;;;;;4970693;28;20031;-76
2022/10/09 10:33:11;;;;;;;4.07;1.92;;;14.10;99.90;;;;;;4970157;28;20035;-76
2022/10/09 10:35:42;;;;;;;2.35;1.38;;;14.00;99.90;;;;;;4985116;28;20507;-76
2022/10/09 10:38:21;;;;;;;5.30;1.23;;;14.20;99.90;;;;;;4985593;28;20359;-75
2022/10/09 10:41:08;;;;;;;3.60;1.55;;;14.20;99.90;;;;;;4970215;28;20116;-74
2022/10/09 10:43:42;;;;;;;2.97;1.10;;;14.40;99.90;;;;;;4978723;28;20126;-76
2022/10/09 10:46:29;;;;;;;3.05;1.38;;;14.40;99.90;;;;;;4969598;28;20090;-75
2022/10/09 10:48:58;;;;;;;4.38;1.35;;;14.50;99.90;;;;;;4989035;28;20557;-75
2022/10/09 10:51:29;;;;;;;3.83;1.35;;;14.50;99.90;;;;;;4975590;28;20039;-75
2022/10/09 10:54:13;;;;;;;2.42;1.40;;;14.60;99.90;;;;;;4992906;28;20396;-75
2022/10/09 10:56:52;;;;;;;4.15;1.25;;;14.60;99.90;;;;;;4994922;28;20022;-75
2022/10/09 10:59:36;;;;;;;3.10;1.00;;;14.60;99.90;;;;;;4977024;28;20387;-75
2022/10/09 11:02:29;;;;;;;3.15;1.20;;;14.80;99.90;;;;;;4994319;28;20034;-76
2022/10/09 11:05:26;;;;;;;1.92;1.30;;;14.90;99.90;;;;;;4992119;28;20141;-75
2022/10/09 11:08:08;;;;;;;2.83;1.20;;;14.90;99.90;;;;;;4992675;28;20395;-75
2022/10/09 11:10:47;;;;;;;5.18;1.27;;;15.00;99.90;;;;;;4994338;28;20025;-74
2022/10/09 11:13:17;;;;;;;4.20;1.30;;;15.00;99.90;;;;;;4983069;28;20062;-74
2022/10/09 11:16:00;;;;;;;1.58;1.05;;;15.00;99.90;;;;;;4993588;28;20022;-77
2022/10/09 11:18:43;;;;;;;5.40;1.38;;;15.00;99.90;;;;;;4993494;28;20084;-74
2022/10/09 11:21:44;;;;;;;2.35;1.00;;;15.10;99.90;;;;;;4993212;28;20038;-74
2022/10/09 11:24:22;;;;;;;4.22;1.40;;;15.20;99.90;;;;;;4976024;28;20022;-74
2022/10/09 11:27:25;;;;;;;3.05;1.20;;;15.30;99.90;;;;;;4975937;28;20023;-74
2022/10/09 11:29:55;;;;;;;3.00;1.20;;;15.40;99.90;;;;;;4992229;28;20053;-74
2022/10/09 11:32:33;;;;;;;2.15;1.00;;;15.60;99.90;;;;;;4992309;28;20034;-74
2022/10/09 11:35:11;;;;;;;4.80;1.35;;;15.60;99.90;;;;;;4994128;28;20129;-74
2022/10/09 11:37:39;;;;;;;2.20;0.90;;;15.70;99.90;;;;;;4992495;28;20042;-75
2022/10/09 11:40:26;;;;;;;2.92;1.10;;;15.80;99.90;;;;;;4992934;28;20484;-76
2022/10/09 11:43:08;;;;;;;3.55;1.10;;;15.80;99.90;;;;;;4975814;28;20125;-75
2022/10/09 11:45:46;;;;;;;3.95;1.30;;;16.00;99.90;;;;;;4992302;28;20023;-75
2022/10/09 11:48:43;;;;;;;1.70;1.17;;;16.00;99.90;;;;;;4991071;28;20064;-74
2022/10/09 11:51:39;;;;;;;3.65;1.20;;;16.10;99.90;;;;;;4975319;28;20136;-75
2022/10/09 11:54:12;;;;;;;2.15;0.88;;;16.30;99.90;;;;;;4992947;28;20049;-75
2022/10/09 11:56:38;;;;;;;3.97;1.10;;;16.40;99.90;;;;;;4993230;28;20027;-73
2022/10/09 11:59:05;;;;;;;3.30;1.40;;;16.50;99.90;;;;;;4991931;28;20035;-75
2022/10/09 12:01:35;;;;;;;2.10;1.17;;;16.70;99.90;;;;;;4975618;28;20038;-75
2022/10/09 12:04:21;;;;;;;7.57;1.50;;;16.90;99.90;;;;;;4991984;28;20036;-75
2022/10/09 12:06:53;;;;;;;2.65;1.15;;;17.10;99.90;;;;;;4975413;28;20045;-75
2022/10/09 12:09:27;;;;;;;3.50;1.45;;;17.30;99.90;;;;;;4975354;28;20106;-75
2022/10/09 12:12:16;;;;;;;2.22;1.10;;;17.60;99.90;;;;;;4974894;28;20049;-74
2022/10/09 12:14:44;;;;;;;3.28;1.15;;;17.80;99.80;;;;;;4971313;28;20061;-75
2022/10/09 12:17:21;;;;;;;3.55;1.00;;;18.00;99.80;;;;;;4992021;28;20026;-74
2022/10/09 12:19:51;;;;;;;3.55;1.13;;;18.30;98.70;;;;;;4990888;28;20414;-74
2022/10/09 12:22:19;;;;;;;4.07;1.10;;;18.50;99.00;;;;;;4982920;28;20030;-75
2022/10/09 12:24:48;;;;;;;1.75;0.88;;;18.80;98.20;;;;;;4974984;28;20027;-74
2022/10/09 12:27:22;;;;;;;2.83;1.05;;;19.00;97.70;;;;;;4992196;28;20483;-74
2022/10/09 12:29:54;;;;;;;2.92;1.05;;;19.20;97.70;;;;;;4975164;28;20156;-75
2022/10/09 12:32:32;;;;;;;3.08;1.00;;;19.50;96.70;;;;;;4992301;28;20034;-75
2022/10/09 12:34:59;;;;;;;1.48;0.82;;;19.70;95.60;;;;;;4992294;28;20078;-75
2022/10/09 12:37:34;;;;;;;2.20;0.90;;;19.80;94.30;;;;;;4991663;28;20084;-75
2022/10/09 12:40:09;;;;;;;1.52;0.90;;;20.10;93.30;;;;;;4974760;28;20034;-75
2022/10/09 12:42:35;;;;;;;2.75;1.08;;;20.50;92.80;;;;;;4975392;28;20034;-75
2022/10/09 12:45:00;;;;;;;2.80;1.10;;;21.10;91.40;;;;;;4974623;28;20354;-75
2022/10/09 12:47:28;;;;;;;3.67;0.93;;;21.60;88.70;;;;;;4992154;28;20038;-75
2022/10/09 12:50:18;;;;;;;2.97;1.23;;;22.10;86.40;;;;;;4974493;28;20117;-75
2022/10/09 12:52:56;;;;;;;3.65;1.10;;;22.70;83.60;;;;;;4991932;28;20057;-78
2022/10/09 12:55:30;;;;;;;2.78;0.93;;;23.00;81.30;;;;;;4990971;28;20034;-76
2022/10/09 12:58:15;;;;;;;3.13;0.73;;;23.30;78.60;;;;;;4974553;28;20030;-76
2022/10/09 13:00:41;;;;;;;2.85;0.88;;;23.70;75.00;;;;;;4974927;28;20030;-76
2022/10/09 13:03:23;;;;;;;3.08;0.95;;;24.20;73.20;;;;;;4992053;28;20038;-77
2022/10/09 13:05:50;;;;;;;2.85;1.27;;;24.50;69.20;;;;;;4990797;28;20478;-76
2022/10/09 13:08:26;;;;;;;1.63;0.80;;;25.00;68.60;;;;;;4991801;28;20031;-76